createdAt,value
2017-10-12T00:00:16.375Z,50.75
2017-10-12T00:02:43.833Z,50.70
2017-10-12T00:05:11.327Z,50.78
2017-10-12T00:07:38.800Z,50.71
2017-10-12T00:10:06.227Z,50.72
2017-10-12T00:12:33.699Z,50.70
2017-10-12T00:15:01.759Z,50.66
2017-10-12T00:17:29.164Z,50.71
2017-10-12T00:19:56.572Z,50.70
2017-10-12T00:22:24.119Z,50.64
2017-10-12T00:24:51.528Z,50.71
2017-10-12T00:27:18.936Z,50.65
2017-10-12T00:29:46.729Z,50.61
2017-10-12T00:32:14.183Z,50.65
2017-10-12T00:34:41.598Z,50.64
2017-10-12T00:37:09.050Z,50.70
2017-10-12T00:39:37.130Z,50.64
2017-10-12T00:42:05.452Z,50.64
2017-10-12T00:44:33.501Z,50.56
2017-10-12T00:47:00.921Z,50.63
2017-10-12T00:49:28.326Z,50.63
2017-10-12T00:51:55.854Z,50.64
2017-10-12T00:54:23.324Z,50.59
2017-10-12T00:56:50.847Z,50.51
2017-10-12T00:59:18.638Z,50.57
2017-10-12T01:01:46.062Z,50.53
2017-10-12T01:04:13.465Z,50.51
2017-10-12T01:06:41.116Z,50.55
2017-10-12T01:09:08.523Z,50.50
2017-10-12T01:11:35.935Z,50.52
2017-10-12T01:14:03.905Z,50.50
2017-10-12T01:16:31.311Z,50.46
2017-10-12T01:18:58.736Z,50.48
2017-10-12T01:21:26.205Z,50.42
2017-10-12T01:23:53.685Z,50.44
2017-10-12T01:26:21.114Z,50.41
2017-10-12T01:28:48.571Z,50.51
2017-10-12T01:31:15.979Z,50.48
2017-10-12T01:33:43.449Z,50.49
2017-10-12T01:36:10.921Z,50.48
2017-10-12T01:38:38.335Z,50.35
2017-10-12T01:41:05.842Z,50.42
2017-10-12T01:43:33.319Z,50.39
2017-10-12T01:46:00.737Z,50.43
2017-10-12T01:51:39.414Z,50.41
2017-10-12T01:54:06.953Z,50.35
2017-10-12T01:56:34.457Z,50.28
2017-10-12T01:59:01.871Z,50.39
2017-10-12T02:01:29.315Z,50.35
2017-10-12T02:03:56.718Z,50.33
2017-10-12T02:06:24.126Z,50.35
2017-10-12T02:08:51.584Z,50.32
2017-10-12T02:11:18.995Z,50.32
2017-10-12T02:13:47.040Z,50.37
2017-10-12T02:16:14.497Z,50.16
2017-10-12T02:18:41.908Z,50.31
2017-10-12T02:21:09.366Z,50.27
2017-10-12T02:23:36.827Z,50.26
2017-10-12T02:26:04.239Z,50.28
2017-10-12T02:28:31.747Z,50.26
2017-10-12T02:30:59.392Z,50.22
2017-10-12T02:33:26.818Z,50.30
2017-10-12T02:35:54.380Z,50.27
2017-10-12T02:38:21.830Z,50.20
2017-10-12T02:40:49.248Z,50.18
2017-10-12T02:43:16.682Z,50.21
2017-10-12T02:45:44.147Z,50.23
2017-10-12T02:48:11.560Z,50.27
2017-10-12T02:50:39.024Z,50.23
2017-10-12T02:53:06.539Z,50.19
2017-10-12T02:55:34.049Z,50.22
2017-10-12T02:58:01.479Z,50.18
2017-10-12T03:00:28.932Z,50.20
2017-10-12T03:02:56.352Z,50.17
2017-10-12T03:05:23.776Z,50.25
2017-10-12T03:07:51.237Z,50.24
2017-10-12T03:10:18.651Z,50.20
2017-10-12T03:12:46.055Z,50.12
2017-10-12T03:15:13.508Z,50.21
2017-10-12T03:17:40.947Z,50.21
2017-10-12T03:20:08.353Z,50.12
2017-10-12T03:22:36.293Z,50.19
2017-10-12T03:25:03.740Z,50.20
2017-10-12T03:27:31.151Z,50.15
2017-10-12T03:29:58.620Z,50.10
2017-10-12T03:32:26.027Z,50.20
2017-10-12T03:34:53.435Z,50.17
2017-10-12T03:37:20.879Z,50.17
2017-10-12T03:39:48.298Z,50.13
2017-10-12T03:42:15.776Z,50.15
2017-10-12T03:44:43.231Z,50.17
2017-10-12T03:47:10.758Z,50.12
2017-10-12T03:49:38.178Z,50.17
2017-10-12T03:52:05.625Z,50.16
2017-10-12T03:54:33.044Z,50.10
2017-10-12T03:57:00.467Z,50.06
2017-10-12T03:59:27.906Z,50.04
2017-10-12T04:01:55.323Z,49.96
2017-10-12T04:04:22.793Z,49.91
2017-10-12T04:06:50.240Z,49.92
2017-10-12T04:09:17.692Z,49.87
2017-10-12T04:11:45.100Z,49.81
2017-10-12T04:14:13.149Z,49.80
2017-10-12T04:16:40.559Z,49.83
2017-10-12T04:19:08.019Z,49.73
2017-10-12T04:21:35.473Z,49.67
2017-10-12T04:24:02.889Z,49.76
2017-10-12T04:26:30.368Z,49.68
2017-10-12T04:28:58.137Z,49.66
2017-10-12T04:31:25.567Z,49.65
2017-10-12T04:33:52.972Z,49.66
2017-10-12T04:36:20.809Z,49.65
2017-10-12T04:38:48.214Z,49.56
2017-10-12T04:41:15.627Z,49.59
2017-10-12T04:43:43.082Z,49.60
2017-10-12T04:46:10.569Z,49.56
2017-10-12T04:48:37.980Z,49.53
2017-10-12T04:51:05.449Z,49.45
2017-10-12T04:53:32.867Z,49.49
2017-10-12T04:56:00.338Z,49.38
2017-10-12T04:58:27.800Z,49.41
2017-10-12T05:00:55.216Z,49.40
2017-10-12T05:03:22.618Z,49.42
2017-10-12T05:05:50.414Z,49.29
2017-10-12T05:08:17.962Z,49.38
2017-10-12T05:10:45.388Z,49.28
2017-10-12T05:13:13.195Z,49.31
2017-10-12T05:15:40.637Z,49.04
2017-10-12T05:18:08.113Z,49.20
2017-10-12T05:20:35.564Z,49.24
2017-10-12T05:23:02.980Z,49.17
2017-10-12T05:25:30.396Z,49.26
2017-10-12T05:27:58.322Z,49.17
2017-10-12T05:30:25.877Z,49.28
2017-10-12T05:32:53.302Z,49.30
2017-10-12T05:35:20.982Z,49.21
2017-10-12T05:37:49.299Z,49.18
2017-10-12T05:40:16.723Z,49.20
2017-10-12T05:42:44.502Z,49.35
2017-10-12T05:45:11.925Z,49.23
2017-10-12T05:47:39.339Z,49.25
2017-10-12T05:50:06.839Z,49.24
2017-10-12T05:52:34.268Z,49.29
2017-10-12T05:55:01.732Z,49.25
2017-10-12T05:57:30.260Z,49.13
2017-10-12T05:59:57.686Z,49.27
2017-10-12T06:02:25.105Z,49.12
2017-10-12T06:04:52.549Z,49.04
2017-10-12T06:07:20.029Z,48.80
2017-10-12T06:09:47.438Z,48.71
2017-10-12T06:12:14.903Z,48.86
2017-10-12T06:14:42.311Z,48.93
2017-10-12T06:17:09.807Z,48.88
2017-10-12T06:19:37.269Z,48.84
2017-10-12T06:22:04.696Z,48.92
2017-10-12T06:24:32.163Z,48.98
2017-10-12T06:26:59.636Z,48.92
2017-10-12T06:29:27.060Z,48.91
2017-10-12T06:31:54.487Z,48.97
2017-10-12T06:34:22.003Z,48.90
2017-10-12T06:36:49.482Z,49.05
2017-10-12T06:39:17.017Z,49.01
2017-10-12T06:41:44.499Z,49.15
2017-10-12T06:44:12.073Z,49.24
2017-10-12T06:46:39.498Z,49.34
2017-10-12T06:49:07.277Z,49.47
2017-10-12T06:51:34.810Z,49.57
2017-10-12T06:54:02.286Z,49.69
2017-10-12T06:56:29.791Z,49.67
2017-10-12T06:58:57.271Z,49.68
2017-10-12T07:01:24.743Z,49.82
2017-10-12T07:03:52.620Z,49.83
2017-10-12T07:06:20.645Z,49.91
2017-10-12T07:08:48.120Z,50.10
2017-10-12T07:11:15.638Z,50.68
2017-10-12T07:13:43.193Z,50.46
2017-10-12T07:16:10.657Z,50.49
2017-10-12T07:18:38.562Z,50.92
2017-10-12T07:21:06.012Z,50.28
2017-10-12T07:23:33.442Z,50.84
2017-10-12T07:26:00.894Z,51.05
2017-10-12T07:28:28.321Z,51.15
2017-10-12T07:30:55.774Z,51.46
2017-10-12T07:33:23.307Z,51.40
2017-10-12T07:35:50.766Z,52.21
2017-10-12T07:38:18.181Z,51.70
2017-10-12T07:40:45.997Z,51.84
2017-10-12T07:43:13.463Z,51.96
2017-10-12T07:45:41.861Z,52.01
2017-10-12T07:48:09.367Z,51.80
2017-10-12T07:50:36.843Z,51.65
2017-10-12T07:53:04.261Z,51.60
2017-10-12T07:55:31.770Z,51.55
2017-10-12T07:57:59.198Z,51.44
2017-10-12T08:00:26.635Z,51.43
2017-10-12T08:02:54.139Z,51.29
2017-10-12T08:05:21.690Z,51.23
2017-10-12T08:07:49.111Z,51.20
2017-10-12T08:10:16.735Z,51.20
2017-10-12T08:12:44.743Z,51.19
2017-10-12T08:15:12.169Z,51.23
2017-10-12T08:17:40.011Z,51.30
2017-10-12T08:20:07.467Z,51.35
2017-10-12T08:22:34.949Z,51.24
2017-10-12T08:25:02.409Z,51.31
2017-10-12T08:27:30.092Z,51.28
2017-10-12T08:29:57.526Z,51.37
2017-10-12T08:32:25.651Z,51.34
2017-10-12T08:34:53.114Z,51.39
2017-10-12T08:37:20.609Z,51.34
2017-10-12T08:39:48.454Z,51.32
2017-10-12T08:42:15.886Z,51.52
2017-10-12T08:44:43.301Z,51.73
2017-10-12T08:47:10.769Z,51.86
2017-10-12T08:49:38.291Z,51.75
2017-10-12T08:52:05.766Z,51.86
2017-10-12T08:54:34.197Z,51.91
2017-10-12T08:57:01.611Z,51.94
2017-10-12T08:59:29.019Z,51.87
2017-10-12T09:01:56.465Z,51.89
2017-10-12T09:04:23.872Z,51.84
2017-10-12T09:06:51.311Z,51.89
2017-10-12T09:09:18.767Z,51.88
2017-10-12T09:11:46.182Z,51.83
2017-10-12T09:14:13.594Z,51.76
2017-10-12T09:16:41.436Z,51.84
2017-10-12T09:19:08.885Z,51.80
2017-10-12T09:21:36.335Z,51.83
2017-10-12T09:24:03.859Z,51.84
2017-10-12T09:26:31.271Z,51.82
2017-10-12T09:29:00.652Z,51.83
2017-10-12T09:31:28.428Z,51.85
2017-10-12T09:33:55.858Z,51.87
2017-10-12T09:36:23.272Z,51.81
2017-10-12T09:38:50.922Z,51.90
2017-10-12T09:41:18.340Z,51.87
2017-10-12T09:43:45.769Z,51.84
2017-10-12T09:46:13.562Z,51.84
2017-10-12T09:48:41.074Z,51.85
2017-10-12T09:51:08.489Z,51.87
2017-10-12T09:53:36.013Z,51.94
2017-10-12T09:56:03.429Z,51.85
2017-10-12T09:58:30.994Z,51.79
2017-10-12T10:00:58.894Z,51.89
2017-10-12T10:03:26.363Z,51.94
2017-10-12T10:05:53.789Z,52.01
2017-10-12T10:08:21.546Z,51.83
2017-10-12T10:10:48.970Z,52.00
2017-10-12T10:13:16.403Z,51.88
2017-10-12T10:15:44.590Z,51.76
2017-10-12T10:18:12.005Z,51.71
2017-10-12T10:20:39.454Z,51.82
2017-10-12T10:23:07.443Z,51.94
2017-10-12T10:25:34.851Z,51.96
2017-10-12T10:28:02.254Z,52.00
2017-10-12T10:30:29.713Z,51.89
2017-10-12T10:32:57.762Z,51.98
2017-10-12T10:35:25.200Z,52.03
2017-10-12T10:37:53.139Z,52.04
2017-10-12T10:40:20.564Z,52.16
2017-10-12T10:42:47.968Z,52.69
2017-10-12T10:45:15.429Z,52.39
2017-10-12T10:47:42.837Z,52.36
2017-10-12T10:50:10.264Z,52.21
2017-10-12T10:52:37.870Z,52.12
2017-10-12T10:55:06.032Z,52.10
2017-10-12T10:57:33.456Z,52.27
2017-10-12T11:00:01.124Z,52.14
2017-10-12T11:02:28.543Z,52.31
2017-10-12T11:04:55.966Z,52.16
2017-10-12T11:07:23.842Z,52.38
2017-10-12T11:09:51.257Z,52.28
2017-10-12T11:12:18.749Z,52.21
2017-10-12T11:14:46.532Z,52.26
2017-10-12T11:17:13.945Z,52.30
2017-10-12T11:19:41.371Z,52.38
2017-10-12T11:22:09.005Z,52.51
2017-10-12T11:24:40.305Z,52.52
2017-10-12T11:27:07.724Z,52.42
2017-10-12T11:29:35.243Z,52.41
2017-10-12T11:32:02.778Z,52.76
2017-10-12T11:34:30.271Z,52.03
2017-10-12T11:36:57.716Z,52.05
2017-10-12T11:39:25.137Z,52.21
2017-10-12T11:41:52.562Z,52.22
2017-10-12T11:44:20.093Z,52.32
2017-10-12T11:46:47.494Z,52.42
2017-10-12T11:49:14.915Z,52.43
2017-10-12T11:51:42.460Z,52.23
2017-10-12T11:54:09.876Z,52.05
2017-10-12T11:56:37.282Z,52.16
2017-10-12T11:59:04.798Z,52.25
2017-10-12T12:01:32.254Z,52.20
2017-10-12T12:03:59.690Z,52.01
2017-10-12T12:06:27.490Z,51.80
2017-10-12T12:08:54.896Z,51.80
2017-10-12T12:11:22.311Z,51.99
2017-10-12T12:13:49.774Z,51.98
2017-10-12T12:16:17.266Z,52.06
2017-10-12T12:18:44.680Z,52.07
2017-10-12T12:21:12.203Z,52.39
